createdAt,value
2019-01-19T00:02:35.155Z,53.50
2019-01-19T00:05:47.344Z,53.20
2019-01-19T00:08:54.206Z,48.40
2019-01-19T00:12:20.370Z,48.53
2019-01-19T00:15:21.526Z,46.43
2019-01-19T00:18:35.347Z,52.30
2019-01-19T00:21:43.663Z,48.10
2019-01-19T00:24:44.604Z,48.57
2019-01-19T00:27:57.943Z,50.30
2019-01-19T00:30:49.236Z,48.20
2019-01-19T00:33:54.987Z,50.43
2019-01-19T00:36:59.127Z,47.43
2019-01-19T00:40:13.068Z,47.27
2019-01-19T00:43:16.596Z,48.13
2019-01-19T00:46:55.371Z,49.43
2019-01-19T00:49:49.703Z,52.20
2019-01-19T00:52:43.364Z,45.50
2019-01-19T00:55:58.694Z,51.30
2019-01-19T00:58:55.667Z,49.50
2019-01-19T01:01:55.440Z,48.27
2019-01-19T01:04:52.644Z,53.30
2019-01-19T01:07:59.907Z,53.10
2019-01-19T01:10:51.391Z,43.10
2019-01-19T01:13:58.706Z,42.93
2019-01-19T01:17:05.576Z,51.83
2019-01-19T01:19:48.624Z,40.03
2019-01-19T01:22:57.741Z,38.07
2019-01-19T01:26:21.163Z,48.80
2019-01-19T01:29:41.494Z,52.73
2019-01-19T01:32:39.732Z,50.03
2019-01-19T01:35:59.894Z,47.20
2019-01-19T01:39:00.016Z,46.43
2019-01-19T01:42:07.368Z,48.40
2019-01-19T01:44:56.671Z,44.60
2019-01-19T01:48:07.762Z,40.73
2019-01-19T01:51:06.539Z,44.63
2019-01-19T01:54:17.731Z,41.17
2019-01-19T01:56:47.963Z,43.97
2019-01-19T01:59:48.088Z,47.67
2019-01-19T02:02:32.527Z,51.17
2019-01-19T02:05:40.233Z,41.93
2019-01-19T02:08:17.804Z,51.45
2019-01-19T02:11:25.400Z,39.55
2019-01-19T02:17:03.213Z,46.58
2019-01-19T02:20:11.460Z,45.40
2019-01-19T02:23:20.359Z,44.03
2019-01-19T02:26:20.931Z,42.10
2019-01-19T02:29:14.723Z,38.25
2019-01-19T02:31:54.248Z,40.27
2019-01-19T02:35:01.336Z,41.00
2019-01-19T02:37:49.875Z,48.10
2019-01-19T02:40:40.660Z,39.93
2019-01-19T02:43:25.617Z,43.10
2019-01-19T02:46:33.122Z,48.23
2019-01-19T02:49:59.928Z,42.67
2019-01-19T02:53:22.080Z,45.23
2019-01-19T02:56:06.647Z,40.30
2019-01-19T02:59:00.881Z,43.63
2019-01-19T03:02:10.699Z,40.78
2019-01-19T03:04:46.436Z,44.85
2019-01-19T03:08:12.736Z,41.93
2019-01-19T03:11:13.245Z,43.13
2019-01-19T03:14:27.693Z,39.27
2019-01-19T03:17:43.679Z,41.63
2019-01-19T03:20:47.167Z,44.93
2019-01-19T03:24:01.467Z,42.33
2019-01-19T03:26:58.576Z,43.27
2019-01-19T03:29:37.674Z,36.47
2019-01-19T03:32:37.640Z,36.70
2019-01-19T03:35:39.688Z,37.40
2019-01-19T03:39:03.111Z,35.27
2019-01-19T03:42:05.022Z,35.37
2019-01-19T03:45:00.214Z,42.43
2019-01-19T03:47:55.699Z,46.73
2019-01-19T03:50:50.675Z,42.87
2019-01-19T03:53:39.876Z,38.67
2019-01-19T03:56:41.351Z,34.10
2019-01-19T04:00:06.967Z,39.63
2019-01-19T04:03:04.129Z,31.83
2019-01-19T04:05:49.094Z,36.05
2019-01-19T04:09:08.950Z,43.53
2019-01-19T04:12:29.045Z,40.03
2019-01-19T04:15:20.904Z,39.37
2019-01-19T04:18:05.378Z,34.97
2019-01-19T04:21:04.236Z,40.37
2019-01-19T04:23:34.656Z,58.87
2019-01-19T04:26:16.874Z,36.17
2019-01-19T04:28:47.558Z,45.03
2019-01-19T04:31:17.733Z,35.80
2019-01-19T04:33:48.256Z,38.80
2019-01-19T04:36:21.997Z,41.53
2019-01-19T04:38:52.431Z,37.80
2019-01-19T04:41:22.741Z,35.27
2019-01-19T04:43:52.897Z,36.00
2019-01-19T04:46:24.799Z,35.07
2019-01-19T04:48:55.108Z,34.20
2019-01-19T04:51:25.320Z,38.87
2019-01-19T04:53:56.992Z,31.90
2019-01-19T04:56:27.143Z,35.88
2019-01-19T04:58:57.337Z,35.63
2019-01-19T05:01:27.516Z,34.40
2019-01-19T05:03:57.700Z,32.17
2019-01-19T05:06:30.510Z,31.80
2019-01-19T05:08:59.783Z,35.43
2019-01-19T05:11:29.960Z,38.08
2019-01-19T05:14:00.188Z,34.27
2019-01-19T05:16:30.398Z,33.15
2019-01-19T05:19:00.553Z,34.05
2019-01-19T05:21:30.944Z,31.12
2019-01-19T05:24:01.106Z,33.70
2019-01-19T05:26:31.363Z,33.13
2019-01-19T05:29:01.572Z,33.43
2019-01-19T05:31:31.747Z,35.00
2019-01-19T05:34:01.971Z,35.05
2019-01-19T05:36:38.208Z,38.23
2019-01-19T05:39:05.559Z,39.15
2019-01-19T05:41:35.767Z,28.62
2019-01-19T05:44:06.047Z,30.43
2019-01-19T05:46:36.277Z,29.07
2019-01-19T05:49:06.462Z,28.55
2019-01-19T05:51:36.708Z,34.40
2019-01-19T05:54:06.920Z,28.93
2019-01-19T05:56:38.589Z,29.80
2019-01-19T05:59:08.768Z,31.45
2019-01-19T06:01:38.956Z,25.77
2019-01-19T06:04:09.203Z,27.40
2019-01-19T06:06:46.683Z,32.30
2019-01-19T06:09:11.276Z,25.43
2019-01-19T06:11:41.459Z,28.70
2019-01-19T06:14:11.656Z,24.77
2019-01-19T06:16:41.828Z,28.32
2019-01-19T06:19:12.285Z,24.00
2019-01-19T06:21:50.585Z,23.50
2019-01-19T06:24:20.775Z,22.27
2019-01-19T06:26:50.975Z,27.07
2019-01-19T06:29:21.171Z,29.07
2019-01-19T06:31:51.369Z,23.95
2019-01-19T06:34:21.583Z,23.20
2019-01-19T06:36:55.117Z,29.18
2019-01-19T06:39:23.792Z,23.30
2019-01-19T06:41:54.036Z,22.27
2019-01-19T06:44:24.247Z,19.45
2019-01-19T06:46:54.461Z,22.10
2019-01-19T06:49:24.637Z,24.13
2019-01-19T06:51:54.845Z,24.35
2019-01-19T06:54:26.433Z,21.17
2019-01-19T06:56:56.615Z,19.10
2019-01-19T06:59:26.812Z,28.67
2019-01-19T07:01:56.999Z,21.48
2019-01-19T07:04:27.239Z,23.27
2019-01-19T07:07:02.645Z,26.00
2019-01-19T07:09:29.327Z,24.02
2019-01-19T07:12:01.864Z,17.67
2019-01-19T07:14:32.095Z,19.53
2019-01-19T07:17:02.287Z,21.00
2019-01-19T07:19:32.687Z,24.15
2019-01-19T07:22:02.888Z,18.40
2019-01-19T07:24:33.067Z,18.73
2019-01-19T07:27:03.262Z,21.37
2019-01-19T07:29:33.455Z,19.02
2019-01-19T07:32:03.660Z,18.50
2019-01-19T07:34:33.852Z,17.23
2019-01-19T07:37:09.674Z,18.03
2019-01-19T07:39:35.937Z,20.15
2019-01-19T07:42:06.179Z,25.90
2019-01-19T07:44:36.357Z,17.15
2019-01-19T07:47:06.952Z,16.57
2019-01-19T07:49:37.180Z,21.33
2019-01-19T07:52:07.505Z,12.80
2019-01-19T07:54:37.695Z,18.03
2019-01-19T07:57:07.903Z,18.85
2019-01-19T07:59:38.101Z,15.67
2019-01-19T08:02:08.659Z,14.80
2019-01-19T08:04:38.840Z,19.43
2019-01-19T08:07:09.055Z,15.60
2019-01-19T08:09:39.277Z,14.40
2019-01-19T08:12:09.468Z,11.23
2019-01-19T08:14:39.689Z,17.60
2019-01-19T08:17:09.909Z,17.23
2019-01-19T08:19:40.084Z,12.45
2019-01-19T08:22:10.298Z,19.37
2019-01-19T08:24:41.488Z,19.47
2019-01-19T08:27:11.687Z,16.70
2019-01-19T08:29:41.895Z,13.13
2019-01-19T08:32:12.095Z,17.33
2019-01-19T08:34:42.297Z,13.00
2019-01-19T08:37:12.576Z,16.70
2019-01-19T08:39:43.601Z,17.60
2019-01-19T08:42:13.876Z,20.93
2019-01-19T08:44:44.184Z,13.33
2019-01-19T08:47:14.489Z,14.50
2019-01-19T08:49:44.704Z,10.30
2019-01-19T08:52:14.916Z,12.20
2019-01-19T08:54:45.080Z,16.90
2019-01-19T08:57:15.323Z,14.70
2019-01-19T08:59:45.513Z,12.40
2019-01-19T09:02:15.872Z,11.77
2019-01-19T09:04:46.272Z,16.83
2019-01-19T09:07:16.596Z,12.43
2019-01-19T09:09:46.843Z,14.03
2019-01-19T09:12:17.057Z,16.67
2019-01-19T09:14:47.275Z,14.17
2019-01-19T09:17:17.467Z,11.17
2019-01-19T09:19:47.711Z,16.43
2019-01-19T09:22:17.939Z,12.30
2019-01-19T09:24:48.220Z,10.13
2019-01-19T09:27:18.424Z,16.73
2019-01-19T09:29:48.623Z,11.00
2019-01-19T09:32:18.919Z,10.30
2019-01-19T09:34:49.159Z,10.80
2019-01-19T09:37:19.338Z,13.67
2019-01-19T09:39:49.571Z,9.50
2019-01-19T09:42:19.832Z,12.23
2019-01-19T09:44:50.047Z,8.00
2019-01-19T09:47:20.280Z,10.87
2019-01-19T09:49:50.468Z,10.30
2019-01-19T09:52:21.337Z,15.03
2019-01-19T09:54:51.649Z,11.13
2019-01-19T09:57:21.876Z,9.77
2019-01-19T09:59:52.060Z,7.80
2019-01-19T10:02:22.260Z,9.13
2019-01-19T10:04:52.440Z,8.17
2019-01-19T10:07:22.623Z,6.67
2019-01-19T10:09:52.859Z,10.47
2019-01-19T10:12:23.106Z,7.20
2019-01-19T10:14:53.290Z,6.47
2019-01-19T10:17:23.672Z,11.80
2019-01-19T10:19:53.852Z,6.87
2019-01-19T10:22:24.071Z,10.70
2019-01-19T10:24:54.295Z,8.50
2019-01-19T10:27:24.492Z,11.43
2019-01-19T10:29:54.684Z,10.73
2019-01-19T10:32:24.894Z,10.00
2019-01-19T10:34:55.107Z,8.33
2019-01-19T10:37:25.270Z,7.10
2019-01-19T10:39:55.426Z,7.43
2019-01-19T10:42:25.809Z,6.50
2019-01-19T10:44:57.091Z,10.17
2019-01-19T10:47:27.294Z,9.10
2019-01-19T10:49:57.592Z,6.50
2019-01-19T10:52:27.768Z,8.20
2019-01-19T10:54:57.911Z,9.40
2019-01-19T10:57:28.098Z,9.10
2019-01-19T10:59:58.250Z,6.47
2019-01-19T11:02:28.722Z,6.87
2019-01-19T11:05:00.281Z,7.33
2019-01-19T11:07:30.547Z,9.70
2019-01-19T11:10:00.823Z,8.47
2019-01-19T11:12:31.052Z,7.53
2019-01-19T11:15:01.235Z,9.53
2019-01-19T11:17:31.420Z,9.50
2019-01-19T11:20:01.572Z,8.90
2019-01-19T11:22:31.801Z,9.33
2019-01-19T11:25:02.062Z,7.63
2019-01-19T11:27:32.295Z,6.37
2019-01-19T11:30:02.655Z,6.10
2019-01-19T11:32:32.821Z,6.93
2019-01-19T11:35:03.011Z,11.90
2019-01-19T11:37:33.199Z,7.50
2019-01-19T11:40:03.374Z,10.03
2019-01-19T11:42:37.866Z,11.33
2019-01-19T11:45:09.166Z,8.10
2019-01-19T11:47:39.419Z,6.57
2019-01-19T11:50:09.846Z,11.40
2019-01-19T11:52:40.003Z,9.73
2019-01-19T11:55:12.152Z,15.63
2019-01-19T11:57:42.359Z,10.20
2019-01-19T12:00:15.919Z,4.80
2019-01-19T12:02:46.083Z,5.70
2019-01-19T12:05:16.280Z,7.00
2019-01-19T12:07:46.447Z,8.03
2019-01-19T12:10:19.504Z,7.17
2019-01-19T12:12:49.647Z,7.33
2019-01-19T12:15:19.870Z,8.43
2019-01-19T12:17:50.079Z,5.00
2019-01-19T12:20:25.901Z,8.80
2019-01-19T12:22:56.375Z,9.57
2019-01-19T12:25:26.762Z,6.40
2019-01-19T12:27:56.932Z,11.47
2019-01-19T12:30:30.719Z,6.60
2019-01-19T12:33:00.879Z,5.53
2019-01-19T12:35:31.417Z,7.00
2019-01-19T12:38:01.845Z,5.90
2019-01-19T12:40:32.243Z,10.17
2019-01-19T12:43:22.847Z,5.50
2019-01-19T12:46:07.231Z,4.57
2019-01-19T12:48:37.394Z,8.60
2019-01-19T12:51:09.939Z,11.17
2019-01-19T12:53:40.195Z,3.50
2019-01-19T12:56:10.363Z,7.73
2019-01-19T12:58:40.529Z,9.07
2019-01-19T13:01:10.709Z,5.70
2019-01-19T13:03:40.901Z,5.03
2019-01-19T13:06:40.228Z,5.30
2019-01-19T13:09:28.379Z,5.27
2019-01-19T13:12:44.654Z,6.90
2019-01-19T13:15:59.080Z,6.43
2019-01-19T13:19:15.370Z,8.00
2019-01-19T13:22:40.938Z,10.23
2019-01-19T13:26:00.290Z,6.97
2019-01-19T13:29:05.369Z,7.27
2019-01-19T13:32:15.832Z,5.37
2019-01-19T13:35:31.067Z,8.57
2019-01-19T13:38:46.106Z,7.13
2019-01-19T13:42:05.512Z,6.53
2019-01-19T13:45:15.767Z,6.70
2019-01-19T13:48:22.911Z,10.00
2019-01-19T13:51:31.322Z,7.27
2019-01-19T13:54:42.684Z,6.00
2019-01-19T13:57:52.895Z,8.10
2019-01-19T14:00:53.344Z,6.73
2019-01-19T14:04:05.025Z,5.70
2019-01-19T14:07:19.672Z,10.27
2019-01-19T14:10:15.070Z,8.23
2019-01-19T14:13:08.675Z,10.87
2019-01-19T14:16:10.603Z,4.83
2019-01-19T14:19:24.806Z,4.60
2019-01-19T14:22:24.000Z,6.80
2019-01-19T14:25:59.895Z,5.17
2019-01-19T14:29:02.061Z,4.63
2019-01-19T14:32:07.923Z,4.67
2019-01-19T14:34:53.999Z,5.73
2019-01-19T14:38:17.223Z,7.63
2019-01-19T14:41:18.317Z,6.33
2019-01-19T14:44:12.495Z,10.17
2019-01-19T14:47:13.638Z,5.10
2019-01-19T14:50:32.036Z,6.20
2019-01-19T14:53:30.043Z,6.10
2019-01-19T14:56:41.443Z,5.77
2019-01-19T14:59:43.518Z,9.20
2019-01-19T15:02:51.925Z,7.43
2019-01-19T15:05:44.557Z,7.60
2019-01-19T15:08:50.276Z,8.57
2019-01-19T15:11:57.644Z,7.27
2019-01-19T15:15:11.863Z,7.57
2019-01-19T15:18:23.384Z,11.43
2019-01-19T15:21:16.527Z,8.30
2019-01-19T15:24:18.298Z,6.73
2019-01-19T15:27:34.680Z,9.53
2019-01-19T15:30:34.472Z,6.23
2019-01-19T15:33:55.275Z,8.23
2019-01-19T15:37:02.289Z,7.70
2019-01-19T15:39:58.962Z,11.10
2019-01-19T15:42:42.243Z,10.63
2019-01-19T15:45:55.425Z,10.20
2019-01-19T15:48:59.888Z,6.57
2019-01-19T15:52:23.508Z,5.30
2019-01-19T15:55:37.404Z,8.67
2019-01-19T15:58:31.499Z,8.13
2019-01-19T16:01:40.663Z,13.07
2019-01-19T16:04:57.661Z,8.23
2019-01-19T16:07:54.297Z,7.10
2019-01-19T16:10:55.542Z,9.43
2019-01-19T16:14:01.000Z,9.23
2019-01-19T16:17:12.635Z,11.00
2019-01-19T16:20:27.160Z,9.67
2019-01-19T16:23:23.279Z,6.60
2019-01-19T16:26:37.344Z,9.67
2019-01-19T16:29:27.318Z,8.70
2019-01-19T16:32:25.411Z,8.63
2019-01-19T16:35:22.226Z,13.30
2019-01-19T16:38:15.383Z,8.13
2019-01-19T16:41:18.239Z,6.67
2019-01-19T16:44:38.692Z,11.63
2019-01-19T16:47:56.068Z,17.87
2019-01-19T16:50:57.433Z,6.37
2019-01-19T16:54:09.059Z,7.47
2019-01-19T16:57:35.723Z,8.23
2019-01-19T17:00:48.667Z,5.27
2019-01-19T17:03:41.128Z,6.10
2019-01-19T17:06:46.885Z,8.63
2019-01-19T17:09:42.448Z,6.30
2019-01-19T17:12:54.673Z,7.33
2019-01-19T17:16:24.317Z,9.17
2019-01-19T17:19:44.751Z,12.70
2019-01-19T17:23:01.420Z,6.27
2019-01-19T17:26:18.077Z,7.00
2019-01-19T17:29:06.355Z,7.97
2019-01-19T17:32:05.679Z,7.90
2019-01-19T17:35:15.473Z,7.97
2019-01-19T17:38:25.587Z,8.50
2019-01-19T17:41:41.866Z,7.60
2019-01-19T17:44:46.582Z,6.57
2019-01-19T17:47:35.330Z,6.50
2019-01-19T17:50:42.231Z,7.30
2019-01-19T17:53:29.941Z,7.43
2019-01-19T17:56:38.968Z,8.67
2019-01-19T17:59:39.172Z,7.37
2019-01-19T18:02:51.655Z,5.90
2019-01-19T18:05:51.306Z,6.90
2019-01-19T18:08:37.131Z,8.80
2019-01-19T18:11:33.193Z,6.40
2019-01-19T18:14:38.743Z,7.87
2019-01-19T18:17:58.332Z,6.97
2019-01-19T18:20:57.036Z,9.70
2019-01-19T18:24:03.179Z,6.40
2019-01-19T18:26:57.819Z,8.23
2019-01-19T18:30:08.324Z,4.60
2019-01-19T18:33:22.908Z,6.50
2019-01-19T18:36:39.120Z,5.30
2019-01-19T18:40:02.552Z,5.30
2019-01-19T18:43:10.482Z,8.30
2019-01-19T18:45:58.924Z,8.30
2019-01-19T18:48:58.341Z,5.17
2019-01-19T18:52:30.720Z,9.10
2019-01-19T18:55:42.800Z,6.57
2019-01-19T18:58:45.967Z,10.80
2019-01-19T19:01:50.018Z,9.93
2019-01-19T19:04:51.522Z,6.70
2019-01-19T19:07:52.719Z,5.57
2019-01-19T19:11:31.170Z,8.27
2019-01-19T19:15:00.747Z,5.43
2019-01-19T19:18:23.615Z,8.20
2019-01-19T19:21:25.002Z,10.80
2019-01-19T19:24:36.253Z,6.80
2019-01-19T19:27:49.449Z,8.07
2019-01-19T19:30:58.109Z,8.60
2019-01-19T19:33:54.276Z,17.23
2019-01-19T19:36:56.622Z,6.87
2019-01-19T19:39:42.562Z,7.73
2019-01-19T19:42:56.067Z,6.77
2019-01-19T19:45:44.346Z,8.87
2019-01-19T19:48:24.235Z,8.47
2019-01-19T19:51:44.852Z,6.27
2019-01-19T19:54:15.032Z,9.30
2019-01-19T19:56:43.635Z,13.23
2019-01-19T19:59:13.895Z,9.83
2019-01-19T20:01:44.188Z,10.60
2019-01-19T20:04:14.437Z,10.30
2019-01-19T20:06:44.643Z,10.73
2019-01-19T20:09:14.835Z,7.80
2019-01-19T20:11:45.020Z,9.90
2019-01-19T20:14:15.261Z,6.93
2019-01-19T20:16:45.456Z,10.57
2019-01-19T20:19:15.655Z,12.57
2019-01-19T20:21:45.959Z,9.00
2019-01-19T20:24:16.181Z,12.20
2019-01-19T20:26:46.358Z,12.00
2019-01-19T20:29:16.572Z,12.27
2019-01-19T20:31:47.828Z,10.30
2019-01-19T20:34:18.016Z,9.77
2019-01-19T20:36:48.578Z,11.53
2019-01-19T20:39:18.869Z,10.60
2019-01-19T20:41:49.085Z,11.93
2019-01-19T20:44:19.301Z,8.03
2019-01-19T20:46:49.523Z,9.70
2019-01-19T20:49:19.730Z,9.77
2019-01-19T20:51:50.004Z,8.90
2019-01-19T20:54:20.427Z,12.40
2019-01-19T20:56:50.643Z,12.67
2019-01-19T20:59:20.944Z,11.20
2019-01-19T21:01:51.189Z,12.27
2019-01-19T21:04:21.380Z,9.50
2019-01-19T21:06:51.617Z,11.90
2019-01-19T21:09:21.802Z,14.20
2019-01-19T21:11:52.008Z,11.47
2019-01-19T21:14:23.456Z,7.17
2019-01-19T21:16:53.824Z,9.57
2019-01-19T21:19:24.016Z,10.43
2019-01-19T21:21:54.210Z,11.83
2019-01-19T21:24:24.409Z,10.87
2019-01-19T21:26:54.651Z,12.03
2019-01-19T21:29:24.831Z,11.73
2019-01-19T21:31:55.059Z,10.10
2019-01-19T21:34:25.388Z,14.20
2019-01-19T21:36:55.590Z,12.67
2019-01-19T21:39:25.826Z,12.97
2019-01-19T21:41:56.014Z,10.63
2019-01-19T21:44:27.283Z,9.83
2019-01-19T21:46:57.514Z,10.30
2019-01-19T21:49:27.721Z,11.73
2019-01-19T21:51:57.921Z,10.33
2019-01-19T21:54:28.191Z,10.50
2019-01-19T21:56:59.451Z,9.70
2019-01-19T21:59:29.627Z,8.23
2019-01-19T22:01:59.814Z,16.17
2019-01-19T22:04:29.979Z,11.43
2019-01-19T22:07:00.164Z,10.73
2019-01-19T22:09:30.381Z,9.40
2019-01-19T22:12:00.536Z,11.77
2019-01-19T22:14:30.709Z,9.40
2019-01-19T22:17:00.861Z,10.73
2019-01-19T22:19:31.067Z,11.70
2019-01-19T22:22:01.362Z,12.80
2019-01-19T22:24:31.612Z,10.77
2019-01-19T22:27:02.303Z,9.93
2019-01-19T22:29:32.578Z,10.17
2019-01-19T22:32:02.951Z,11.80
2019-01-19T22:34:33.179Z,9.97
2019-01-19T22:37:03.398Z,8.73
2019-01-19T22:39:33.585Z,9.10
2019-01-19T22:42:03.779Z,11.00
2019-01-19T22:44:35.117Z,9.50
2019-01-19T22:47:05.284Z,13.58
2019-01-19T22:49:35.492Z,10.30
2019-01-19T22:52:06.032Z,10.60
2019-01-19T22:54:36.272Z,11.07
2019-01-19T22:57:06.745Z,12.00
2019-01-19T22:59:38.752Z,11.80
2019-01-19T23:02:11.617Z,11.03
2019-01-19T23:04:41.828Z,9.90
2019-01-19T23:07:12.208Z,12.00
2019-01-19T23:09:42.406Z,10.23
2019-01-19T23:12:12.680Z,11.48
2019-01-19T23:14:43.287Z,10.27
2019-01-19T23:17:13.491Z,7.57
2019-01-19T23:19:43.783Z,10.75
2019-01-19T23:22:14.007Z,10.20
2019-01-19T23:24:44.252Z,8.88
2019-01-19T23:27:14.493Z,9.37
2019-01-19T23:29:44.933Z,12.13
2019-01-19T23:32:15.194Z,10.10
2019-01-19T23:34:45.393Z,11.80
2019-01-19T23:37:15.616Z,10.00
2019-01-19T23:39:45.831Z,9.70
2019-01-19T23:42:16.092Z,13.20
2019-01-19T23:44:46.326Z,11.15
2019-01-19T23:47:16.501Z,11.40
2019-01-19T23:49:46.683Z,8.80
2019-01-19T23:52:16.904Z,9.37
2019-01-19T23:54:47.171Z,10.13
2019-01-19T23:57:17.381Z,11.90
2019-01-19T23:59:49.038Z,9.87
